sensor_id;sensor_type;location;lat;lon;timestamp;P1;durP1;ratioP1;P2;durP2;ratioP2
64885;SDS011;51514;52.206;5.114;2023-03-01T00:01:57;14.68;;;9.63;;
64885;SDS011;51514;52.206;5.114;2023-03-01T00:04:23;11.82;;;9.50;;
64885;SDS011;51514;52.206;5.114;2023-03-01T00:06:48;8.52;;;7.57;;
64885;SDS011;51514;52.206;5.114;2023-03-01T00:09:14;11.75;;;8.93;;
64885;SDS011;51514;52.206;5.114;2023-03-01T00:11:40;9.43;;;7.85;;
64885;SDS011;51514;52.206;5.114;2023-03-01T00:14:05;12.20;;;9.90;;
64885;SDS011;51514;52.206;5.114;2023-03-01T00:16:41;11.32;;;9.48;;
64885;SDS011;51514;52.206;5.114;2023-03-01T00:19:08;11.32;;;9.48;;
64885;SDS011;51514;52.206;5.114;2023-03-01T00:21:37;11.65;;;9.57;;
64885;SDS011;51514;52.206;5.114;2023-03-01T00:24:02;11.13;;;9.73;;
64885;SDS011;51514;52.206;5.114;2023-03-01T00:26:28;12.63;;;10.55;;
64885;SDS011;51514;52.206;5.114;2023-03-01T00:28:54;12.93;;;10.93;;
64885;SDS011;51514;52.206;5.114;2023-03-01T00:31:23;15.95;;;13.32;;
64885;SDS011;51514;52.206;5.114;2023-03-01T00:33:54;14.02;;;11.60;;
64885;SDS011;51514;52.206;5.114;2023-03-01T00:36:22;15.23;;;12.65;;
64885;SDS011;51514;52.206;5.114;2023-03-01T00:38:48;15.30;;;11.70;;
64885;SDS011;51514;52.206;5.114;2023-03-01T00:41:14;14.52;;;10.85;;
64885;SDS011;51514;52.206;5.114;2023-03-01T00:43:41;15.52;;;12.73;;
64885;SDS011;51514;52.206;5.114;2023-03-01T00:46:08;16.42;;;12.80;;
64885;SDS011;51514;52.206;5.114;2023-03-01T00:48:35;18.38;;;12.95;;
64885;SDS011;51514;52.206;5.114;2023-03-01T00:51:08;17.50;;;12.35;;
64885;SDS011;51514;52.206;5.114;2023-03-01T00:53:36;16.55;;;12.73;;
64885;SDS011;51514;52.206;5.114;2023-03-01T00:56:03;17.45;;;12.23;;
64885;SDS011;51514;52.206;5.114;2023-03-01T00:58:29;14.60;;;13.02;;
64885;SDS011;51514;52.206;5.114;2023-03-01T01:00:55;15.75;;;12.60;;
64885;SDS011;51514;52.206;5.114;2023-03-01T01:03:21;16.95;;;12.98;;
64885;SDS011;51514;52.206;5.114;2023-03-01T01:05:47;14.85;;;11.90;;
64885;SDS011;51514;52.206;5.114;2023-03-01T01:08:12;16.83;;;12.85;;
64885;SDS011;51514;52.206;5.114;2023-03-01T01:10:37;17.52;;;12.95;;
64885;SDS011;51514;52.206;5.114;2023-03-01T01:13:03;15.27;;;11.88;;
64885;SDS011;51514;52.206;5.114;2023-03-01T01:15:31;15.00;;;11.68;;
64885;SDS011;51514;52.206;5.114;2023-03-01T01:17:58;16.45;;;13.85;;
64885;SDS011;51514;52.206;5.114;2023-03-01T01:20:24;16.52;;;12.25;;
64885;SDS011;51514;52.206;5.114;2023-03-01T01:22:49;16.05;;;11.70;;
64885;SDS011;51514;52.206;5.114;2023-03-01T01:25:16;17.90;;;12.32;;
64885;SDS011;51514;52.206;5.114;2023-03-01T01:27:41;19.55;;;12.63;;
64885;SDS011;51514;52.206;5.114;2023-03-01T01:30:07;19.90;;;13.30;;
64885;SDS011;51514;52.206;5.114;2023-03-01T01:32:32;19.27;;;13.18;;
64885;SDS011;51514;52.206;5.114;2023-03-01T01:34:58;16.73;;;12.52;;
64885;SDS011;51514;52.206;5.114;2023-03-01T01:37:23;9.02;;;7.22;;
64885;SDS011;51514;52.206;5.114;2023-03-01T01:39:55;9.27;;;7.25;;
64885;SDS011;51514;52.206;5.114;2023-03-01T01:42:21;9.32;;;7.65;;
64885;SDS011;51514;52.206;5.114;2023-03-01T01:44:46;9.80;;;7.35;;
64885;SDS011;51514;52.206;5.114;2023-03-01T01:47:13;7.25;;;6.32;;
64885;SDS011;51514;52.206;5.114;2023-03-01T01:52:25;10.75;;;8.70;;
64885;SDS011;51514;52.206;5.114;2023-03-01T01:54:58;10.02;;;8.57;;
64885;SDS011;51514;52.206;5.114;2023-03-01T02:00:12;8.18;;;6.38;;
64885;SDS011;51514;52.206;5.114;2023-03-01T02:02:41;9.52;;;7.22;;
64885;SDS011;51514;52.206;5.114;2023-03-01T02:05:11;8.43;;;7.38;;
64885;SDS011;51514;52.206;5.114;2023-03-01T02:07:45;11.45;;;8.07;;
64885;SDS011;51514;52.206;5.114;2023-03-01T02:10:12;9.55;;;8.02;;
64885;SDS011;51514;52.206;5.114;2023-03-01T02:12:38;9.98;;;8.68;;
64885;SDS011;51514;52.206;5.114;2023-03-01T02:15:04;9.80;;;8.18;;
64885;SDS011;51514;52.206;5.114;2023-03-01T02:17:30;12.38;;;9.50;;
64885;SDS011;51514;52.206;5.114;2023-03-01T02:22:40;11.00;;;9.48;;
64885;SDS011;51514;52.206;5.114;2023-03-01T02:27:58;11.43;;;8.93;;
64885;SDS011;51514;52.206;5.114;2023-03-01T02:30:26;11.38;;;9.48;;
64885;SDS011;51514;52.206;5.114;2023-03-01T02:32:53;10.23;;;8.48;;
64885;SDS011;51514;52.206;5.114;2023-03-01T02:35:27;9.50;;;8.00;;
64885;SDS011;51514;52.206;5.114;2023-03-01T02:37:56;10.10;;;8.85;;
64885;SDS011;51514;52.206;5.114;2023-03-01T02:40:25;10.27;;;8.88;;
64885;SDS011;51514;52.206;5.114;2023-03-01T02:42:53;11.77;;;8.80;;
64885;SDS011;51514;52.206;5.114;2023-03-01T02:45:22;10.98;;;8.95;;
64885;SDS011;51514;52.206;5.114;2023-03-01T02:47:48;10.88;;;9.30;;
64885;SDS011;51514;52.206;5.114;2023-03-01T02:50:23;10.88;;;8.90;;
64885;SDS011;51514;52.206;5.114;2023-03-01T02:53:02;10.02;;;8.32;;
64885;SDS011;51514;52.206;5.114;2023-03-01T02:55:33;9.27;;;8.00;;
64885;SDS011;51514;52.206;5.114;2023-03-01T02:57:58;12.00;;;9.05;;
64885;SDS011;51514;52.206;5.114;2023-03-01T03:00:33;10.25;;;8.43;;
64885;SDS011;51514;52.206;5.114;2023-03-01T03:03:05;8.93;;;8.02;;
64885;SDS011;51514;52.206;5.114;2023-03-01T03:05:32;11.05;;;9.25;;
64885;SDS011;51514;52.206;5.114;2023-03-01T03:07:58;8.27;;;6.93;;
64885;SDS011;51514;52.206;5.114;2023-03-01T03:10:26;7.78;;;6.13;;
64885;SDS011;51514;52.206;5.114;2023-03-01T03:12:55;6.80;;;6.10;;
64885;SDS011;51514;52.206;5.114;2023-03-01T03:15:23;7.85;;;6.47;;
64885;SDS011;51514;52.206;5.114;2023-03-01T03:17:49;9.68;;;7.80;;
64885;SDS011;51514;52.206;5.114;2023-03-01T03:20:17;10.40;;;7.75;;
64885;SDS011;51514;52.206;5.114;2023-03-01T03:22:44;10.90;;;8.80;;
64885;SDS011;51514;52.206;5.114;2023-03-01T03:25:11;10.35;;;8.95;;
64885;SDS011;51514;52.206;5.114;2023-03-01T03:27:37;9.18;;;7.82;;
64885;SDS011;51514;52.206;5.114;2023-03-01T03:30:04;9.57;;;8.07;;
64885;SDS011;51514;52.206;5.114;2023-03-01T03:32:36;7.78;;;6.97;;
64885;SDS011;51514;52.206;5.114;2023-03-01T03:35:02;10.32;;;7.35;;
64885;SDS011;51514;52.206;5.114;2023-03-01T03:37:37;10.07;;;8.20;;
64885;SDS011;51514;52.206;5.114;2023-03-01T03:40:23;10.75;;;7.80;;
64885;SDS011;51514;52.206;5.114;2023-03-01T03:42:48;10.13;;;8.10;;
64885;SDS011;51514;52.206;5.114;2023-03-01T03:45:15;10.63;;;7.93;;
64885;SDS011;51514;52.206;5.114;2023-03-01T03:47:41;9.35;;;7.20;;
64885;SDS011;51514;52.206;5.114;2023-03-01T03:50:07;10.45;;;7.70;;
64885;SDS011;51514;52.206;5.114;2023-03-01T03:52:34;10.90;;;9.02;;
64885;SDS011;51514;52.206;5.114;2023-03-01T03:54:59;17.88;;;12.90;;
64885;SDS011;51514;52.206;5.114;2023-03-01T03:57:25;13.10;;;10.50;;
64885;SDS011;51514;52.206;5.114;2023-03-01T03:59:50;12.82;;;10.05;;
64885;SDS011;51514;52.206;5.114;2023-03-01T04:02:15;12.38;;;9.95;;
64885;SDS011;51514;52.206;5.114;2023-03-01T04:04:47;12.30;;;9.90;;
64885;SDS011;51514;52.206;5.114;2023-03-01T04:07:14;13.77;;;10.48;;
64885;SDS011;51514;52.206;5.114;2023-03-01T04:09:41;14.48;;;10.70;;
64885;SDS011;51514;52.206;5.114;2023-03-01T04:12:07;14.75;;;10.68;;
64885;SDS011;51514;52.206;5.114;2023-03-01T04:14:33;14.98;;;11.02;;
64885;SDS011;51514;52.206;5.114;2023-03-01T04:16:59;13.43;;;11.02;;
64885;SDS011;51514;52.206;5.114;2023-03-01T04:19:24;11.65;;;9.93;;
64885;SDS011;51514;52.206;5.114;2023-03-01T04:21:49;12.10;;;9.48;;
64885;SDS011;51514;52.206;5.114;2023-03-01T04:24:15;11.02;;;8.95;;
64885;SDS011;51514;52.206;5.114;2023-03-01T04:26:40;10.68;;;8.60;;
64885;SDS011;51514;52.206;5.114;2023-03-01T04:29:05;12.82;;;9.75;;
64885;SDS011;51514;52.206;5.114;2023-03-01T04:31:31;12.55;;;10.07;;
64885;SDS011;51514;52.206;5.114;2023-03-01T04:33:56;11.65;;;8.25;;
64885;SDS011;51514;52.206;5.114;2023-03-01T04:36:23;13.20;;;10.02;;
64885;SDS011;51514;52.206;5.114;2023-03-01T04:38:50;12.85;;;10.23;;
64885;SDS011;51514;52.206;5.114;2023-03-01T04:41:17;14.43;;;10.93;;
64885;SDS011;51514;52.206;5.114;2023-03-01T04:43:44;17.55;;;12.38;;
64885;SDS011;51514;52.206;5.114;2023-03-01T04:46:11;16.85;;;13.20;;
64885;SDS011;51514;52.206;5.114;2023-03-01T04:48:39;18.63;;;13.13;;
64885;SDS011;51514;52.206;5.114;2023-03-01T04:51:06;17.20;;;12.45;;
64885;SDS011;51514;52.206;5.114;2023-03-01T04:53:32;18.75;;;13.35;;
64885;SDS011;51514;52.206;5.114;2023-03-01T04:55:58;20.98;;;14.07;;
64885;SDS011;51514;52.206;5.114;2023-03-01T04:58:25;22.45;;;14.32;;
64885;SDS011;51514;52.206;5.114;2023-03-01T05:00:51;20.05;;;13.77;;
64885;SDS011;51514;52.206;5.114;2023-03-01T05:03:18;19.40;;;13.15;;
64885;SDS011;51514;52.206;5.114;2023-03-01T05:05:44;17.25;;;13.32;;
64885;SDS011;51514;52.206;5.114;2023-03-01T05:08:11;16.92;;;13.18;;
64885;SDS011;51514;52.206;5.114;2023-03-01T05:10:48;17.38;;;13.18;;
64885;SDS011;51514;52.206;5.114;2023-03-01T05:13:15;19.92;;;13.98;;
64885;SDS011;51514;52.206;5.114;2023-03-01T05:15:58;17.02;;;12.68;;
64885;SDS011;51514;52.206;5.114;2023-03-01T05:18:25;19.13;;;13.38;;
64885;SDS011;51514;52.206;5.114;2023-03-01T05:20:53;20.40;;;12.93;;
64885;SDS011;51514;52.206;5.114;2023-03-01T05:23:21;19.02;;;13.68;;
64885;SDS011;51514;52.206;5.114;2023-03-01T05:25:47;20.20;;;14.80;;
64885;SDS011;51514;52.206;5.114;2023-03-01T05:28:12;17.52;;;12.75;;
64885;SDS011;51514;52.206;5.114;2023-03-01T05:30:38;19.00;;;13.55;;
64885;SDS011;51514;52.206;5.114;2023-03-01T05:33:04;20.75;;;13.75;;
64885;SDS011;51514;52.206;5.114;2023-03-01T05:35:32;17.08;;;13.40;;
64885;SDS011;51514;52.206;5.114;2023-03-01T05:37:58;16.15;;;12.55;;
64885;SDS011;51514;52.206;5.114;2023-03-01T05:40:23;24.45;;;15.80;;
64885;SDS011;51514;52.206;5.114;2023-03-01T05:42:55;20.88;;;13.45;;
64885;SDS011;51514;52.206;5.114;2023-03-01T05:45:22;19.17;;;13.75;;
64885;SDS011;51514;52.206;5.114;2023-03-01T05:47:49;18.17;;;12.18;;
64885;SDS011;51514;52.206;5.114;2023-03-01T05:50:16;16.45;;;12.02;;
64885;SDS011;51514;52.206;5.114;2023-03-01T05:52:45;13.32;;;10.80;;
64885;SDS011;51514;52.206;5.114;2023-03-01T05:55:12;15.45;;;10.98;;
64885;SDS011;51514;52.206;5.114;2023-03-01T05:57:37;12.40;;;9.63;;
64885;SDS011;51514;52.206;5.114;2023-03-01T06:00:02;12.98;;;10.30;;
64885;SDS011;51514;52.206;5.114;2023-03-01T06:02:28;17.40;;;12.07;;
64885;SDS011;51514;52.206;5.114;2023-03-01T06:04:54;16.77;;;12.43;;
64885;SDS011;51514;52.206;5.114;2023-03-01T06:07:20;19.35;;;14.00;;
64885;SDS011;51514;52.206;5.114;2023-03-01T06:09:45;21.67;;;13.18;;
64885;SDS011;51514;52.206;5.114;2023-03-01T06:12:10;18.02;;;13.07;;
64885;SDS011;51514;52.206;5.114;2023-03-01T06:14:35;18.27;;;13.23;;
64885;SDS011;51514;52.206;5.114;2023-03-01T06:17:01;14.30;;;11.13;;
64885;SDS011;51514;52.206;5.114;2023-03-01T06:19:26;15.63;;;11.70;;
64885;SDS011;51514;52.206;5.114;2023-03-01T06:21:51;18.50;;;12.90;;
64885;SDS011;51514;52.206;5.114;2023-03-01T06:24:17;16.23;;;12.50;;
64885;SDS011;51514;52.206;5.114;2023-03-01T06:26:42;19.25;;;13.50;;
64885;SDS011;51514;52.206;5.114;2023-03-01T06:29:07;19.05;;;12.60;;
64885;SDS011;51514;52.206;5.114;2023-03-01T06:31:33;17.67;;;11.88;;
64885;SDS011;51514;52.206;5.114;2023-03-01T06:33:59;19.55;;;12.95;;
64885;SDS011;51514;52.206;5.114;2023-03-01T06:36:24;18.38;;;12.98;;
64885;SDS011;51514;52.206;5.114;2023-03-01T06:38:49;18.50;;;13.15;;
64885;SDS011;51514;52.206;5.114;2023-03-01T06:41:15;21.00;;;13.25;;
64885;SDS011;51514;52.206;5.114;2023-03-01T06:43:40;19.90;;;13.70;;
64885;SDS011;51514;52.206;5.114;2023-03-01T06:46:05;21.38;;;13.50;;
64885;SDS011;51514;52.206;5.114;2023-03-01T06:48:32;19.58;;;13.63;;
64885;SDS011;51514;52.206;5.114;2023-03-01T06:50:58;21.73;;;13.80;;
64885;SDS011;51514;52.206;5.114;2023-03-01T06:53:25;19.50;;;14.23;;
64885;SDS011;51514;52.206;5.114;2023-03-01T06:55:55;19.52;;;13.85;;
64885;SDS011;51514;52.206;5.114;2023-03-01T06:58:21;19.92;;;15.07;;
64885;SDS011;51514;52.206;5.114;2023-03-01T07:00:46;23.45;;;14.32;;
64885;SDS011;51514;52.206;5.114;2023-03-01T07:03:12;18.35;;;13.55;;
64885;SDS011;51514;52.206;5.114;2023-03-01T07:05:37;22.08;;;13.48;;
64885;SDS011;51514;52.206;5.114;2023-03-01T07:08:02;22.75;;;15.93;;
64885;SDS011;51514;52.206;5.114;2023-03-01T07:10:28;19.95;;;13.55;;
64885;SDS011;51514;52.206;5.114;2023-03-01T07:12:56;20.02;;;14.60;;
64885;SDS011;51514;52.206;5.114;2023-03-01T07:15:23;20.00;;;14.90;;
64885;SDS011;51514;52.206;5.114;2023-03-01T07:17:49;21.95;;;14.70;;
64885;SDS011;51514;52.206;5.114;2023-03-01T07:20:15;24.33;;;15.38;;
64885;SDS011;51514;52.206;5.114;2023-03-01T07:22:41;24.83;;;15.43;;
64885;SDS011;51514;52.206;5.114;2023-03-01T07:37:59;29.95;;;18.23;;
64885;SDS011;51514;52.206;5.114;2023-03-01T07:40:25;24.65;;;16.10;;
64885;SDS011;51514;52.206;5.114;2023-03-01T07:42:54;23.52;;;15.60;;
64885;SDS011;51514;52.206;5.114;2023-03-01T07:45:20;22.50;;;15.38;;
64885;SDS011;51514;52.206;5.114;2023-03-01T07:47:46;23.55;;;16.35;;
64885;SDS011;51514;52.206;5.114;2023-03-01T07:50:11;24.27;;;16.48;;
64885;SDS011;51514;52.206;5.114;2023-03-01T07:52:38;25.85;;;17.60;;
64885;SDS011;51514;52.206;5.114;2023-03-01T07:55:03;23.30;;;16.17;;
64885;SDS011;51514;52.206;5.114;2023-03-01T07:57:29;26.70;;;19.48;;
64885;SDS011;51514;52.206;5.114;2023-03-01T07:59:54;27.40;;;18.08;;
64885;SDS011;51514;52.206;5.114;2023-03-01T08:02:20;22.95;;;16.20;;
64885;SDS011;51514;52.206;5.114;2023-03-01T08:04:45;27.05;;;19.42;;
64885;SDS011;51514;52.206;5.114;2023-03-01T08:07:10;24.63;;;18.13;;
64885;SDS011;51514;52.206;5.114;2023-03-01T08:09:36;26.30;;;18.45;;
64885;SDS011;51514;52.206;5.114;2023-03-01T08:12:02;25.45;;;17.55;;
64885;SDS011;51514;52.206;5.114;2023-03-01T08:14:29;25.75;;;18.67;;
64885;SDS011;51514;52.206;5.114;2023-03-01T08:16:55;28.50;;;19.98;;
64885;SDS011;51514;52.206;5.114;2023-03-01T08:19:20;26.08;;;18.80;;
64885;SDS011;51514;52.206;5.114;2023-03-01T08:21:45;26.35;;;18.65;;
64885;SDS011;51514;52.206;5.114;2023-03-01T08:24:11;26.88;;;20.08;;
64885;SDS011;51514;52.206;5.114;2023-03-01T08:26:36;26.10;;;19.52;;
64885;SDS011;51514;52.206;5.114;2023-03-01T08:29:02;23.17;;;17.90;;
64885;SDS011;51514;52.206;5.114;2023-03-01T08:31:29;30.05;;;19.42;;
64885;SDS011;51514;52.206;5.114;2023-03-01T08:33:58;24.23;;;18.30;;
64885;SDS011;51514;52.206;5.114;2023-03-01T08:36:26;22.88;;;16.42;;
64885;SDS011;51514;52.206;5.114;2023-03-01T08:38:54;21.63;;;15.73;;
64885;SDS011;51514;52.206;5.114;2023-03-01T08:41:19;18.85;;;12.40;;
64885;SDS011;51514;52.206;5.114;2023-03-01T08:43:45;22.30;;;14.32;;
64885;SDS011;51514;52.206;5.114;2023-03-01T08:46:11;16.65;;;12.07;;
64885;SDS011;51514;52.206;5.114;2023-03-01T08:48:37;14.40;;;11.65;;
64885;SDS011;51514;52.206;5.114;2023-03-01T08:51:10;16.60;;;11.80;;
64885;SDS011;51514;52.206;5.114;2023-03-01T08:53:37;17.05;;;12.43;;
64885;SDS011;51514;52.206;5.114;2023-03-01T08:56:03;17.77;;;11.05;;
64885;SDS011;51514;52.206;5.114;2023-03-01T08:58:28;13.75;;;9.63;;
64885;SDS011;51514;52.206;5.114;2023-03-01T09:00:54;18.77;;;11.77;;
64885;SDS011;51514;52.206;5.114;2023-03-01T09:03:22;15.20;;;10.95;;
64885;SDS011;51514;52.206;5.114;2023-03-01T09:05:48;16.02;;;10.90;;
64885;SDS011;51514;52.206;5.114;2023-03-01T09:08:15;16.70;;;11.73;;
64885;SDS011;51514;52.206;5.114;2023-03-01T09:10:41;17.67;;;11.77;;
64885;SDS011;51514;52.206;5.114;2023-03-01T09:13:06;18.02;;;12.35;;
64885;SDS011;51514;52.206;5.114;2023-03-01T09:15:32;19.38;;;12.07;;
64885;SDS011;51514;52.206;5.114;2023-03-01T09:17:58;15.35;;;11.45;;
64885;SDS011;51514;52.206;5.114;2023-03-01T09:20:24;17.88;;;12.73;;
64885;SDS011;51514;52.206;5.114;2023-03-01T09:22:49;17.10;;;11.90;;
64885;SDS011;51514;52.206;5.114;2023-03-01T09:25:14;15.48;;;10.80;;
64885;SDS011;51514;52.206;5.114;2023-03-01T09:27:40;14.60;;;11.13;;
64885;SDS011;51514;52.206;5.114;2023-03-01T09:30:05;12.75;;;9.00;;
64885;SDS011;51514;52.206;5.114;2023-03-01T09:32:31;17.30;;;10.20;;
64885;SDS011;51514;52.206;5.114;2023-03-01T09:34:57;17.38;;;9.52;;
64885;SDS011;51514;52.206;5.114;2023-03-01T09:37:32;13.63;;;9.52;;
64885;SDS011;51514;52.206;5.114;2023-03-01T09:39:58;14.02;;;10.43;;
64885;SDS011;51514;52.206;5.114;2023-03-01T09:42:23;15.10;;;9.63;;
64885;SDS011;51514;52.206;5.114;2023-03-01T09:44:51;16.17;;;10.23;;
64885;SDS011;51514;52.206;5.114;2023-03-01T09:47:23;17.38;;;10.98;;
64885;SDS011;51514;52.206;5.114;2023-03-01T09:52:29;15.23;;;10.93;;
64885;SDS011;51514;52.206;5.114;2023-03-01T09:54:56;14.13;;;10.90;;
64885;SDS011;51514;52.206;5.114;2023-03-01T10:00:21;16.08;;;10.55;;
64885;SDS011;51514;52.206;5.114;2023-03-01T10:06:01;13.02;;;9.63;;
64885;SDS011;51514;52.206;5.114;2023-03-01T10:08:33;13.52;;;9.68;;
64885;SDS011;51514;52.206;5.114;2023-03-01T10:11:04;12.05;;;8.07;;
64885;SDS011;51514;52.206;5.114;2023-03-01T10:14:01;14.18;;;7.78;;
64885;SDS011;51514;52.206;5.114;2023-03-01T10:16:48;9.25;;;6.70;;
64885;SDS011;51514;52.206;5.114;2023-03-01T10:19:20;11.93;;;7.88;;
64885;SDS011;51514;52.206;5.114;2023-03-01T10:21:53;10.93;;;8.07;;
64885;SDS011;51514;52.206;5.114;2023-03-01T10:24:19;10.60;;;7.05;;
64885;SDS011;51514;52.206;5.114;2023-03-01T10:26:56;12.27;;;7.72;;
64885;SDS011;51514;52.206;5.114;2023-03-01T10:29:25;11.40;;;7.38;;
64885;SDS011;51514;52.206;5.114;2023-03-01T10:31:56;12.02;;;7.30;;
64885;SDS011;51514;52.206;5.114;2023-03-01T10:34:29;9.65;;;6.68;;
64885;SDS011;51514;52.206;5.114;2023-03-01T10:36:58;13.75;;;7.35;;
64885;SDS011;51514;52.206;5.114;2023-03-01T10:40:04;10.23;;;7.07;;
64885;SDS011;51514;52.206;5.114;2023-03-01T10:42:33;9.48;;;6.63;;
64885;SDS011;51514;52.206;5.114;2023-03-01T10:47:47;9.57;;;6.78;;
64885;SDS011;51514;52.206;5.114;2023-03-01T10:50:28;9.98;;;6.55;;
64885;SDS011;51514;52.206;5.114;2023-03-01T10:52:58;9.93;;;6.53;;
64885;SDS011;51514;52.206;5.114;2023-03-01T10:55:36;8.93;;;6.55;;
64885;SDS011;51514;52.206;5.114;2023-03-01T10:58:07;10.38;;;6.32;;
64885;SDS011;51514;52.206;5.114;2023-03-01T11:03:24;11.95;;;6.55;;
64885;SDS011;51514;52.206;5.114;2023-03-01T11:05:53;10.43;;;6.70;;
64885;SDS011;51514;52.206;5.114;2023-03-01T11:08:31;10.45;;;6.10;;
64885;SDS011;51514;52.206;5.114;2023-03-01T11:13:53;11.38;;;7.28;;
64885;SDS011;51514;52.206;5.114;2023-03-01T11:16:33;12.07;;;7.00;;
64885;SDS011;51514;52.206;5.114;2023-03-01T11:21:34;8.73;;;6.25;;
64885;SDS011;51514;52.206;5.114;2023-03-01T11:24:04;8.98;;;6.43;;
64885;SDS011;51514;52.206;5.114;2023-03-01T11:26:36;9.82;;;6.63;;
64885;SDS011;51514;52.206;5.114;2023-03-01T11:29:06;9.25;;;7.00;;
64885;SDS011;51514;52.206;5.114;2023-03-01T11:31:57;14.07;;;6.22;;
64885;SDS011;51514;52.206;5.114;2023-03-01T11:34:47;9.52;;;7.30;;
64885;SDS011;51514;52.206;5.114;2023-03-01T11:42:40;9.68;;;6.47;;
64885;SDS011;51514;52.206;5.114;2023-03-01T11:45:12;9.05;;;6.30;;
64885;SDS011;51514;52.206;5.114;2023-03-01T11:50:28;9.68;;;6.32;;
64885;SDS011;51514;52.206;5.114;2023-03-01T11:58:41;10.63;;;6.20;;
64885;SDS011;51514;52.206;5.114;2023-03-01T12:01:32;11.85;;;6.88;;
64885;SDS011;51514;52.206;5.114;2023-03-01T12:12:47;8.93;;;5.95;;
64885;SDS011;51514;52.206;5.114;2023-03-01T12:26:23;9.80;;;6.80;;
64885;SDS011;51514;52.206;5.114;2023-03-01T12:31:41;10.05;;;6.82;;
64885;SDS011;51514;52.206;5.114;2023-03-01T12:37:11;11.85;;;7.50;;
64885;SDS011;51514;52.206;5.114;2023-03-01T12:45:46;11.25;;;7.07;;
64885;SDS011;51514;52.206;5.114;2023-03-01T12:48:31;10.18;;;6.50;;
64885;SDS011;51514;52.206;5.114;2023-03-01T12:51:06;13.73;;;6.13;;
64885;SDS011;51514;52.206;5.114;2023-03-01T12:53:36;8.35;;;5.70;;
64885;SDS011;51514;52.206;5.114;2023-03-01T12:56:07;8.13;;;5.68;;
64885;SDS011;51514;52.206;5.114;2023-03-01T13:07:57;8.57;;;6.00;;
64885;SDS011;51514;52.206;5.114;2023-03-01T13:15:33;8.52;;;6.03;;
64885;SDS011;51514;52.206;5.114;2023-03-01T13:18:02;8.63;;;5.60;;
64885;SDS011;51514;52.206;5.114;2023-03-01T13:20:34;9.30;;;5.63;;
64885;SDS011;51514;52.206;5.114;2023-03-01T13:31:00;7.80;;;5.55;;
64885;SDS011;51514;52.206;5.114;2023-03-01T13:35:55;12.65;;;6.28;;
64885;SDS011;51514;52.206;5.114;2023-03-01T13:41:11;10.02;;;5.35;;
64885;SDS011;51514;52.206;5.114;2023-03-01T13:43:38;7.18;;;5.80;;
64885;SDS011;51514;52.206;5.114;2023-03-01T13:46:10;12.37;;;6.50;;
64885;SDS011;51514;52.206;5.114;2023-03-01T13:48:45;7.00;;;5.32;;
64885;SDS011;51514;52.206;5.114;2023-03-01T13:51:15;9.48;;;5.85;;
64885;SDS011;51514;52.206;5.114;2023-03-01T13:53:46;6.70;;;5.00;;
64885;SDS011;51514;52.206;5.114;2023-03-01T13:56:46;8.18;;;5.05;;
64885;SDS011;51514;52.206;5.114;2023-03-01T13:59:06;11.18;;;5.95;;
64885;SDS011;51514;52.206;5.114;2023-03-01T14:01:38;6.65;;;5.43;;
64885;SDS011;51514;52.206;5.114;2023-03-01T14:04:16;10.07;;;6.20;;
64885;SDS011;51514;52.206;5.114;2023-03-01T14:06:51;8.63;;;5.38;;
64885;SDS011;51514;52.206;5.114;2023-03-01T14:19:55;12.10;;;5.50;;
64885;SDS011;51514;52.206;5.114;2023-03-01T14:22:28;7.68;;;5.35;;
64885;SDS011;51514;52.206;5.114;2023-03-01T14:24:58;8.35;;;5.82;;
64885;SDS011;51514;52.206;5.114;2023-03-01T14:27:28;8.82;;;5.70;;
64885;SDS011;51514;52.206;5.114;2023-03-01T14:30:15;10.23;;;5.53;;
64885;SDS011;51514;52.206;5.114;2023-03-01T14:32:56;8.00;;;5.28;;
64885;SDS011;51514;52.206;5.114;2023-03-01T14:35:25;9.35;;;5.22;;
64885;SDS011;51514;52.206;5.114;2023-03-01T14:37:55;6.97;;;5.38;;
64885;SDS011;51514;52.206;5.114;2023-03-01T14:40:21;9.27;;;5.07;;
64885;SDS011;51514;52.206;5.114;2023-03-01T14:42:53;10.18;;;5.60;;
64885;SDS011;51514;52.206;5.114;2023-03-01T14:45:20;13.48;;;6.97;;
64885;SDS011;51514;52.206;5.114;2023-03-01T14:47:45;8.02;;;5.60;;
64885;SDS011;51514;52.206;5.114;2023-03-01T14:52:52;8.13;;;5.30;;
64885;SDS011;51514;52.206;5.114;2023-03-01T14:55:31;7.30;;;6.15;;
64885;SDS011;51514;52.206;5.114;2023-03-01T14:58:02;9.98;;;6.70;;
64885;SDS011;51514;52.206;5.114;2023-03-01T15:00:29;8.52;;;5.90;;
64885;SDS011;51514;52.206;5.114;2023-03-01T15:02:56;11.13;;;6.25;;
64885;SDS011;51514;52.206;5.114;2023-03-01T15:05:34;10.00;;;5.40;;
64885;SDS011;51514;52.206;5.114;2023-03-01T15:08:02;8.90;;;6.63;;
64885;SDS011;51514;52.206;5.114;2023-03-01T15:10:30;11.18;;;6.78;;
64885;SDS011;51514;52.206;5.114;2023-03-01T15:13:11;8.40;;;5.43;;
64885;SDS011;51514;52.206;5.114;2023-03-01T15:15:38;9.52;;;6.10;;
64885;SDS011;51514;52.206;5.114;2023-03-01T15:18:18;9.85;;;5.78;;
64885;SDS011;51514;52.206;5.114;2023-03-01T15:20:47;7.10;;;4.93;;
64885;SDS011;51514;52.206;5.114;2023-03-01T15:23:31;9.77;;;5.90;;
64885;SDS011;51514;52.206;5.114;2023-03-01T15:25:57;10.05;;;5.43;;
64885;SDS011;51514;52.206;5.114;2023-03-01T15:28:28;8.85;;;5.03;;
64885;SDS011;51514;52.206;5.114;2023-03-01T15:30:56;8.60;;;5.75;;
64885;SDS011;51514;52.206;5.114;2023-03-01T15:35:53;8.73;;;6.00;;
64885;SDS011;51514;52.206;5.114;2023-03-01T15:39:03;10.18;;;6.10;;
64885;SDS011;51514;52.206;5.114;2023-03-01T15:43:50;9.25;;;5.28;;
64885;SDS011;51514;52.206;5.114;2023-03-01T15:46:26;9.77;;;6.50;;
64885;SDS011;51514;52.206;5.114;2023-03-01T15:48:59;9.80;;;6.35;;
64885;SDS011;51514;52.206;5.114;2023-03-01T15:51:31;10.23;;;6.47;;
64885;SDS011;51514;52.206;5.114;2023-03-01T15:54:20;10.68;;;6.43;;
64885;SDS011;51514;52.206;5.114;2023-03-01T15:56:48;9.32;;;6.57;;
64885;SDS011;51514;52.206;5.114;2023-03-01T15:59:14;11.27;;;6.28;;
64885;SDS011;51514;52.206;5.114;2023-03-01T16:01:43;12.35;;;6.63;;
64885;SDS011;51514;52.206;5.114;2023-03-01T16:04:12;12.30;;;6.90;;
64885;SDS011;51514;52.206;5.114;2023-03-01T16:06:45;8.25;;;6.22;;
64885;SDS011;51514;52.206;5.114;2023-03-01T16:09:12;10.73;;;7.07;;
64885;SDS011;51514;52.206;5.114;2023-03-01T16:11:37;10.45;;;6.82;;
64885;SDS011;51514;52.206;5.114;2023-03-01T16:14:04;8.23;;;6.15;;
64885;SDS011;51514;52.206;5.114;2023-03-01T16:16:30;9.55;;;6.72;;
64885;SDS011;51514;52.206;5.114;2023-03-01T16:18:55;9.75;;;6.57;;
64885;SDS011;51514;52.206;5.114;2023-03-01T16:21:24;10.65;;;6.95;;
64885;SDS011;51514;52.206;5.114;2023-03-01T16:23:50;11.30;;;7.23;;
64885;SDS011;51514;52.206;5.114;2023-03-01T16:26:16;11.60;;;6.47;;
64885;SDS011;51514;52.206;5.114;2023-03-01T16:28:43;10.20;;;6.82;;
64885;SDS011;51514;52.206;5.114;2023-03-01T16:31:10;13.75;;;7.90;;
64885;SDS011;51514;52.206;5.114;2023-03-01T16:33:36;11.35;;;7.38;;
64885;SDS011;51514;52.206;5.114;2023-03-01T16:36:10;10.40;;;6.95;;
64885;SDS011;51514;52.206;5.114;2023-03-01T16:38:37;13.77;;;7.85;;
64885;SDS011;51514;52.206;5.114;2023-03-01T16:41:03;10.75;;;6.63;;
64885;SDS011;51514;52.206;5.114;2023-03-01T16:43:32;11.00;;;6.28;;
64885;SDS011;51514;52.206;5.114;2023-03-01T16:45:58;10.30;;;6.63;;
64885;SDS011;51514;52.206;5.114;2023-03-01T16:48:24;13.07;;;7.18;;
64885;SDS011;51514;52.206;5.114;2023-03-01T16:50:56;13.55;;;7.22;;
64885;SDS011;51514;52.206;5.114;2023-03-01T16:53:22;11.98;;;7.22;;
64885;SDS011;51514;52.206;5.114;2023-03-01T16:55:55;12.77;;;7.18;;